sensor_id;sensor_type;location;lat;lon;timestamp;pressure;altitude;pressure_sealevel;temperature;humidity
69306;BME280;56427;51.580;4.656;2023-02-15T00:01:08;102884.69;;;0.73;100.00
69306;BME280;56427;51.580;4.656;2023-02-15T00:03:33;102874.56;;;0.59;100.00
69306;BME280;56427;51.580;4.656;2023-02-15T00:05:58;102871.88;;;0.79;100.00
69306;BME280;56427;51.580;4.656;2023-02-15T00:08:24;102871.09;;;0.68;100.00
69306;BME280;56427;51.580;4.656;2023-02-15T00:10:49;102868.75;;;0.46;100.00
69306;BME280;56427;51.580;4.656;2023-02-15T00:13:14;102866.19;;;0.46;100.00
69306;BME280;56427;51.580;4.656;2023-02-15T00:15:40;102861.09;;;0.43;100.00
69306;BME280;56427;51.580;4.656;2023-02-15T00:18:05;102861.97;;;0.39;100.00
69306;BME280;56427;51.580;4.656;2023-02-15T00:20:30;102865.63;;;0.03;100.00
69306;BME280;56427;51.580;4.656;2023-02-15T00:22:56;102863.72;;;0.32;100.00
69306;BME280;56427;51.580;4.656;2023-02-15T00:25:21;102860.22;;;0.44;100.00
69306;BME280;56427;51.580;4.656;2023-02-15T00:27:46;102852.53;;;0.47;100.00
69306;BME280;56427;51.580;4.656;2023-02-15T00:30:12;102855.09;;;0.47;100.00
69306;BME280;56427;51.580;4.656;2023-02-15T00:32:38;102849.94;;;0.52;100.00
69306;BME280;56427;51.580;4.656;2023-02-15T00:35:03;102853.25;;;0.65;100.00
69306;BME280;56427;51.580;4.656;2023-02-15T00:37:28;102852.47;;;0.55;100.00
69306;BME280;56427;51.580;4.656;2023-02-15T00:39:54;102844.06;;;0.41;100.00
69306;BME280;56427;51.580;4.656;2023-02-15T00:42:19;102853.28;;;0.59;100.00
69306;BME280;56427;51.580;4.656;2023-02-15T00:44:44;102848.22;;;0.52;100.00
69306;BME280;56427;51.580;4.656;2023-02-15T00:47:10;102855.84;;;0.57;100.00
69306;BME280;56427;51.580;4.656;2023-02-15T00:49:35;102850.06;;;0.41;100.00
69306;BME280;56427;51.580;4.656;2023-02-15T00:52:00;102853.44;;;0.40;100.00
69306;BME280;56427;51.580;4.656;2023-02-15T00:54:26;102843.44;;;0.14;100.00
69306;BME280;56427;51.580;4.656;2023-02-15T00:56:51;102838.38;;;0.06;100.00
69306;BME280;56427;51.580;4.656;2023-02-15T00:59:16;102846.75;;;0.25;100.00
69306;BME280;56427;51.580;4.656;2023-02-15T01:01:42;102842.31;;;0.46;100.00
69306;BME280;56427;51.580;4.656;2023-02-15T01:04:07;102838.31;;;0.15;100.00
69306;BME280;56427;51.580;4.656;2023-02-15T01:06:32;102837.44;;;0.18;100.00
69306;BME280;56427;51.580;4.656;2023-02-15T01:08:57;102832.47;;;-0.02;100.00
69306;BME280;56427;51.580;4.656;2023-02-15T01:11:23;102826.72;;;-0.35;100.00
69306;BME280;56427;51.580;4.656;2023-02-15T01:13:50;102825.91;;;-0.48;100.00
69306;BME280;56427;51.580;4.656;2023-02-15T01:16:16;102827.59;;;-0.39;100.00
69306;BME280;56427;51.580;4.656;2023-02-15T01:18:42;102825.84;;;-0.31;100.00
69306;BME280;56427;51.580;4.656;2023-02-15T01:21:20;102815.63;;;-0.26;100.00
69306;BME280;56427;51.580;4.656;2023-02-15T01:23:46;102820.72;;;-0.25;100.00
69306;BME280;56427;51.580;4.656;2023-02-15T01:26:12;102814.75;;;-0.25;100.00
69306;BME280;56427;51.580;4.656;2023-02-15T01:28:38;102815.63;;;-0.28;100.00
69306;BME280;56427;51.580;4.656;2023-02-15T01:31:12;102811.38;;;-0.32;100.00
69306;BME280;56427;51.580;4.656;2023-02-15T01:33:38;102810.41;;;-0.12;100.00
69306;BME280;56427;51.580;4.656;2023-02-15T01:36:04;102815.53;;;-0.11;100.00
69306;BME280;56427;51.580;4.656;2023-02-15T01:38:30;102807.91;;;-0.22;100.00
69306;BME280;56427;51.580;4.656;2023-02-15T01:40:55;102809.75;;;-0.42;100.00
69306;BME280;56427;51.580;4.656;2023-02-15T01:43:42;102808.13;;;-0.54;100.00
69306;BME280;56427;51.580;4.656;2023-02-15T01:46:08;102796.97;;;-0.36;100.00
69306;BME280;56427;51.580;4.656;2023-02-15T01:48:40;102805.44;;;-0.31;100.00
69306;BME280;56427;51.580;4.656;2023-02-15T01:51:08;102800.25;;;-0.19;100.00
69306;BME280;56427;51.580;4.656;2023-02-15T01:53:40;102801.13;;;-0.20;100.00
69306;BME280;56427;51.580;4.656;2023-02-15T01:56:29;102799.31;;;-0.05;100.00
69306;BME280;56427;51.580;4.656;2023-02-15T01:59:00;102797.63;;;-0.08;100.00
69306;BME280;56427;51.580;4.656;2023-02-15T02:01:28;102794.44;;;-0.39;100.00
69306;BME280;56427;51.580;4.656;2023-02-15T02:04:29;102785.16;;;-0.49;100.00
69306;BME280;56427;51.580;4.656;2023-02-15T02:06:57;102780.09;;;-0.65;100.00
69306;BME280;56427;51.580;4.656;2023-02-15T02:09:23;102779.28;;;-0.67;100.00
69306;BME280;56427;51.580;4.656;2023-02-15T02:11:49;102779.28;;;-0.68;100.00
69306;BME280;56427;51.580;4.656;2023-02-15T02:14:16;102771.66;;;-0.76;100.00
69306;BME280;56427;51.580;4.656;2023-02-15T02:16:54;102765.72;;;-0.81;100.00
69306;BME280;56427;51.580;4.656;2023-02-15T02:33:40;102751.31;;;-0.82;100.00
69306;BME280;56427;51.580;4.656;2023-02-15T02:38:48;102749.47;;;-0.62;100.00
69306;BME280;56427;51.580;4.656;2023-02-15T02:44:10;102739.88;;;-0.18;100.00
69306;BME280;56427;51.580;4.656;2023-02-15T02:49:03;102731.47;;;-0.37;100.00
69306;BME280;56427;51.580;4.656;2023-02-15T02:51:29;102730.66;;;-0.42;100.00
69306;BME280;56427;51.580;4.656;2023-02-15T02:53:56;102735.84;;;-0.56;100.00
69306;BME280;56427;51.580;4.656;2023-02-15T02:56:30;102728.16;;;-0.50;100.00
69306;BME280;56427;51.580;4.656;2023-02-15T02:59:31;102730.69;;;-0.48;100.00
69306;BME280;56427;51.580;4.656;2023-02-15T03:02:05;102729.16;;;-0.74;100.00
69306;BME280;56427;51.580;4.656;2023-02-15T03:04:45;102726.63;;;-0.79;100.00
69306;BME280;56427;51.580;4.656;2023-02-15T03:07:16;102714.69;;;-0.72;100.00
69306;BME280;56427;51.580;4.656;2023-02-15T03:09:49;102720.75;;;-0.93;100.00
69306;BME280;56427;51.580;4.656;2023-02-15T03:12:22;102718.25;;;-1.05;100.00
69306;BME280;56427;51.580;4.656;2023-02-15T03:14:51;102718.31;;;-1.18;100.00
69306;BME280;56427;51.580;4.656;2023-02-15T03:17:20;102715.72;;;-1.07;100.00
69306;BME280;56427;51.580;4.656;2023-02-15T03:19:50;102714.03;;;-1.14;100.00
69306;BME280;56427;51.580;4.656;2023-02-15T03:22:21;102711.50;;;-1.16;100.00
69306;BME280;56427;51.580;4.656;2023-02-15T03:25:02;102724.22;;;-1.13;100.00
69306;BME280;56427;51.580;4.656;2023-02-15T03:27:37;102710.66;;;-1.13;100.00
69306;BME280;56427;51.580;4.656;2023-02-15T03:30:05;102714.91;;;-1.17;100.00
69306;BME280;56427;51.580;4.656;2023-02-15T03:32:33;102710.69;;;-1.28;100.00
69306;BME280;56427;51.580;4.656;2023-02-15T03:34:59;102706.53;;;-1.54;100.00
69306;BME280;56427;51.580;4.656;2023-02-15T03:37:32;102709.03;;;-1.46;100.00
69306;BME280;56427;51.580;4.656;2023-02-15T03:45:31;102692.00;;;-1.24;100.00
69306;BME280;56427;51.580;4.656;2023-02-15T03:47:59;102692.81;;;-1.13;100.00
69306;BME280;56427;51.580;4.656;2023-02-15T03:50:29;102695.28;;;-0.99;100.00
69306;BME280;56427;51.580;4.656;2023-02-15T03:53:17;102698.72;;;-1.02;100.00
69306;BME280;56427;51.580;4.656;2023-02-15T03:55:54;102690.97;;;-0.86;100.00
69306;BME280;56427;51.580;4.656;2023-02-15T03:58:21;102687.53;;;-0.81;100.00
69306;BME280;56427;51.580;4.656;2023-02-15T04:01:19;102684.94;;;-0.70;100.00
69306;BME280;56427;51.580;4.656;2023-02-15T04:04:11;102685.84;;;-0.77;100.00
69306;BME280;56427;51.580;4.656;2023-02-15T04:06:39;102678.91;;;-0.60;100.00
69306;BME280;56427;51.580;4.656;2023-02-15T04:09:05;102679.69;;;-0.48;100.00
69306;BME280;56427;51.580;4.656;2023-02-15T04:11:49;102667.47;;;-0.08;100.00
69306;BME280;56427;51.580;4.656;2023-02-15T04:14:14;102667.56;;;-0.22;100.00
69306;BME280;56427;51.580;4.656;2023-02-15T04:16:58;102669.41;;;-0.36;100.00
69306;BME280;56427;51.580;4.656;2023-02-15T04:19:23;102678.81;;;-0.41;100.00
69306;BME280;56427;51.580;4.656;2023-02-15T04:22:07;102670.84;;;-0.09;100.00
69306;BME280;56427;51.580;4.656;2023-02-15T04:24:51;102667.81;;;-0.51;100.00
69306;BME280;56427;51.580;4.656;2023-02-15T04:27:36;102674.84;;;-0.85;100.00
69306;BME280;56427;51.580;4.656;2023-02-15T04:30:01;102673.13;;;-0.85;100.00
69306;BME280;56427;51.580;4.656;2023-02-15T04:32:27;102670.44;;;-0.63;100.00
69306;BME280;56427;51.580;4.656;2023-02-15T04:34:52;102676.28;;;-0.47;100.00
69306;BME280;56427;51.580;4.656;2023-02-15T04:37:18;102676.34;;;-0.57;100.00
69306;BME280;56427;51.580;4.656;2023-02-15T04:39:43;102678.06;;;-0.59;100.00
69306;BME280;56427;51.580;4.656;2023-02-15T04:42:08;102673.88;;;-0.69;100.00
69306;BME280;56427;51.580;4.656;2023-02-15T04:44:34;102673.94;;;-0.77;100.00
69306;BME280;56427;51.580;4.656;2023-02-15T04:46:59;102674.84;;;-0.90;100.00
69306;BME280;56427;51.580;4.656;2023-02-15T04:49:24;102663.88;;;-1.06;100.00
69306;BME280;56427;51.580;4.656;2023-02-15T04:51:49;102669.81;;;-1.04;100.00
69306;BME280;56427;51.580;4.656;2023-02-15T04:54:15;102669.88;;;-1.13;100.00
69306;BME280;56427;51.580;4.656;2023-02-15T04:56:40;102674.97;;;-1.10;100.00
69306;BME280;56427;51.580;4.656;2023-02-15T04:59:06;102677.44;;;-1.01;100.00
69306;BME280;56427;51.580;4.656;2023-02-15T05:01:31;102673.97;;;-0.86;100.00
69306;BME280;56427;51.580;4.656;2023-02-15T05:03:56;102672.19;;;-0.70;100.00
69306;BME280;56427;51.580;4.656;2023-02-15T05:06:22;102675.47;;;-0.49;100.00
69306;BME280;56427;51.580;4.656;2023-02-15T05:08:47;102660.19;;;-0.56;100.00
69306;BME280;56427;51.580;4.656;2023-02-15T05:11:13;102660.91;;;-0.38;100.00
69306;BME280;56427;51.580;4.656;2023-02-15T05:13:38;102654.88;;;-0.26;100.00
69306;BME280;56427;51.580;4.656;2023-02-15T05:16:04;102647.59;;;-0.76;100.00
69306;BME280;56427;51.580;4.656;2023-02-15T05:18:29;102647.69;;;-0.96;100.00
69306;BME280;56427;51.580;4.656;2023-02-15T05:20:55;102643.53;;;-1.14;100.00
69306;BME280;56427;51.580;4.656;2023-02-15T05:23:20;102640.94;;;-1.04;100.00
69306;BME280;56427;51.580;4.656;2023-02-15T05:25:47;102637.44;;;-0.85;100.00
69306;BME280;56427;51.580;4.656;2023-02-15T05:28:32;102651.16;;;-1.07;100.00
69306;BME280;56427;51.580;4.656;2023-02-15T05:31:11;102645.13;;;-0.96;100.00
69306;BME280;56427;51.580;4.656;2023-02-15T05:33:37;102636.53;;;-0.79;100.00
69306;BME280;56427;51.580;4.656;2023-02-15T05:36:03;102634.88;;;-0.85;100.00
69306;BME280;56427;51.580;4.656;2023-02-15T05:38:29;102644.19;;;-0.79;100.00
69306;BME280;56427;51.580;4.656;2023-02-15T05:40:55;102637.13;;;-0.45;100.00
69306;BME280;56427;51.580;4.656;2023-02-15T05:43:21;102626.09;;;-0.47;100.00
69306;BME280;56427;51.580;4.656;2023-02-15T05:45:50;102631.28;;;-0.56;100.00
69306;BME280;56427;51.580;4.656;2023-02-15T05:48:16;102634.69;;;-0.54;100.00
69306;BME280;56427;51.580;4.656;2023-02-15T05:50:42;102629.47;;;-0.43;100.00
69306;BME280;56427;51.580;4.656;2023-02-15T05:53:07;102631.16;;;-0.41;100.00
69306;BME280;56427;51.580;4.656;2023-02-15T05:55:33;102624.38;;;-0.42;100.00
69306;BME280;56427;51.580;4.656;2023-02-15T05:57:58;102620.84;;;-0.28;100.00
69306;BME280;56427;51.580;4.656;2023-02-15T06:00:24;102620.09;;;-0.40;100.00
69306;BME280;56427;51.580;4.656;2023-02-15T06:02:50;102629.66;;;-0.66;100.00
69306;BME280;56427;51.580;4.656;2023-02-15T06:05:16;102629.69;;;-0.71;100.00
69306;BME280;56427;51.580;4.656;2023-02-15T06:07:44;102632.91;;;-0.44;100.00
69306;BME280;56427;51.580;4.656;2023-02-15T06:10:10;102623.59;;;-0.54;100.00
69306;BME280;56427;51.580;4.656;2023-02-15T06:12:35;102633.97;;;-0.78;100.00
69306;BME280;56427;51.580;4.656;2023-02-15T06:15:00;102634.78;;;-0.69;100.00
69306;BME280;56427;51.580;4.656;2023-02-15T06:17:26;102636.44;;;-0.64;100.00
69306;BME280;56427;51.580;4.656;2023-02-15T06:19:51;102631.19;;;-0.45;100.00
69306;BME280;56427;51.580;4.656;2023-02-15T06:22:17;102626.88;;;-0.39;100.00
69306;BME280;56427;51.580;4.656;2023-02-15T06:24:42;102627.84;;;-0.49;100.00
69306;BME280;56427;51.580;4.656;2023-02-15T06:27:09;102625.25;;;-0.43;100.00
69306;BME280;56427;51.580;4.656;2023-02-15T06:29:35;102625.19;;;-0.40;100.00
69306;BME280;56427;51.580;4.656;2023-02-15T06:32:01;102629.44;;;-0.37;100.00
69306;BME280;56427;51.580;4.656;2023-02-15T06:34:26;102621.84;;;-0.46;100.00
69306;BME280;56427;51.580;4.656;2023-02-15T06:36:52;102623.38;;;-0.28;100.00
69306;BME280;56427;51.580;4.656;2023-02-15T06:39:17;102618.31;;;-0.31;100.00
69306;BME280;56427;51.580;4.656;2023-02-15T06:41:43;102617.47;;;-0.30;100.00
69306;BME280;56427;51.580;4.656;2023-02-15T06:44:08;102621.56;;;-0.14;100.00
69306;BME280;56427;51.580;4.656;2023-02-15T06:46:34;102625.81;;;-0.13;100.00
69306;BME280;56427;51.580;4.656;2023-02-15T06:48:59;102617.13;;;0.05;100.00
69306;BME280;56427;51.580;4.656;2023-02-15T06:51:25;102618.78;;;0.08;100.00
69306;BME280;56427;51.580;4.656;2023-02-15T06:53:50;102617.94;;;0.09;100.00
69306;BME280;56427;51.580;4.656;2023-02-15T06:56:16;102618.00;;;0.03;100.00
69306;BME280;56427;51.580;4.656;2023-02-15T06:58:42;102613.81;;;-0.02;100.00
69306;BME280;56427;51.580;4.656;2023-02-15T07:01:08;102614.59;;;0.04;100.00
69306;BME280;56427;51.580;4.656;2023-02-15T07:03:34;102617.03;;;0.13;100.00
69306;BME280;56427;51.580;4.656;2023-02-15T07:06:01;102614.38;;;0.25;100.00
69306;BME280;56427;51.580;4.656;2023-02-15T07:08:28;102613.53;;;0.25;100.00
69306;BME280;56427;51.580;4.656;2023-02-15T07:10:54;102610.72;;;0.46;100.00
69306;BME280;56427;51.580;4.656;2023-02-15T07:13:20;102609.03;;;0.42;100.00
69306;BME280;56427;51.580;4.656;2023-02-15T07:15:46;102609.00;;;0.47;100.00
69306;BME280;56427;51.580;4.656;2023-02-15T07:18:13;102602.63;;;0.07;100.00
69306;BME280;56427;51.580;4.656;2023-02-15T07:20:38;102600.66;;;0.31;100.00
69306;BME280;56427;51.580;4.656;2023-02-15T07:23:06;102596.56;;;0.16;100.00
69306;BME280;56427;51.580;4.656;2023-02-15T07:25:31;102606.69;;;0.25;100.00
69306;BME280;56427;51.580;4.656;2023-02-15T07:28:00;102605.91;;;0.20;100.00
69306;BME280;56427;51.580;4.656;2023-02-15T07:30:27;102603.19;;;0.32;100.00
69306;BME280;56427;51.580;4.656;2023-02-15T07:32:56;102603.13;;;0.39;100.00
69306;BME280;56427;51.580;4.656;2023-02-15T07:35:46;102601.28;;;0.51;100.00
69306;BME280;56427;51.580;4.656;2023-02-15T07:38:12;102599.19;;;0.80;100.00
69306;BME280;56427;51.580;4.656;2023-02-15T07:40:38;102602.75;;;1.28;100.00
69306;BME280;56427;51.580;4.656;2023-02-15T07:43:04;102608.97;;;1.65;100.00
69306;BME280;56427;51.580;4.656;2023-02-15T07:45:29;102607.88;;;1.78;100.00
69306;BME280;56427;51.580;4.656;2023-02-15T07:47:54;102612.22;;;1.75;100.00
69306;BME280;56427;51.580;4.656;2023-02-15T07:50:20;102603.41;;;1.91;100.00
69306;BME280;56427;51.580;4.656;2023-02-15T07:52:45;102606.88;;;2.32;100.00
69306;BME280;56427;51.580;4.656;2023-02-15T07:55:10;102599.31;;;2.68;100.00
69306;BME280;56427;51.580;4.656;2023-02-15T07:57:41;102591.41;;;2.38;100.00
69306;BME280;56427;51.580;4.656;2023-02-15T08:00:07;102587.47;;;3.36;100.00
69306;BME280;56427;51.580;4.656;2023-02-15T08:02:32;102586.75;;;3.31;100.00
69306;BME280;56427;51.580;4.656;2023-02-15T08:04:59;102590.22;;;3.28;100.00
69306;BME280;56427;51.580;4.656;2023-02-15T08:07:24;102588.69;;;3.21;100.00
69306;BME280;56427;51.580;4.656;2023-02-15T08:09:49;102586.78;;;3.64;100.00
69306;BME280;56427;51.580;4.656;2023-02-15T08:12:14;102592.66;;;3.35;100.00
69306;BME280;56427;51.580;4.656;2023-02-15T08:14:40;102589.44;;;2.89;100.00
69306;BME280;56427;51.580;4.656;2023-02-15T08:17:05;102583.50;;;2.87;100.00
69306;BME280;56427;51.580;4.656;2023-02-15T08:19:32;102585.38;;;2.80;100.00
69306;BME280;56427;51.580;4.656;2023-02-15T08:22:05;102587.91;;;2.82;100.00
69306;BME280;56427;51.580;4.656;2023-02-15T08:24:33;102586.06;;;2.87;100.00
69306;BME280;56427;51.580;4.656;2023-02-15T08:27:00;102593.69;;;2.90;100.00
69306;BME280;56427;51.580;4.656;2023-02-15T08:29:28;102587.72;;;3.25;100.00
69306;BME280;56427;51.580;4.656;2023-02-15T08:31:57;102580.84;;;3.27;100.00
69306;BME280;56427;51.580;4.656;2023-02-15T08:34:24;102580.25;;;3.18;100.00
69306;BME280;56427;51.580;4.656;2023-02-15T08:36:49;102580.31;;;3.15;100.00
69306;BME280;56427;51.580;4.656;2023-02-15T08:39:16;102575.38;;;3.41;100.00
69306;BME280;56427;51.580;4.656;2023-02-15T08:41:44;102562.47;;;3.44;100.00
69306;BME280;56427;51.580;4.656;2023-02-15T08:44:10;102562.38;;;3.80;100.00
69306;BME280;56427;51.580;4.656;2023-02-15T08:46:40;102563.94;;;4.17;100.00
69306;BME280;56427;51.580;4.656;2023-02-15T08:49:08;102561.16;;;4.25;100.00
69306;BME280;56427;51.580;4.656;2023-02-15T08:51:35;102554.91;;;5.17;100.00
69306;BME280;56427;51.580;4.656;2023-02-15T08:54:04;102557.91;;;4.76;100.00
69306;BME280;56427;51.580;4.656;2023-02-15T08:56:33;102559.59;;;4.49;100.00
69306;BME280;56427;51.580;4.656;2023-02-15T08:58:59;102566.66;;;5.24;100.00
69306;BME280;56427;51.580;4.656;2023-02-15T09:01:27;102567.59;;;4.95;100.00
69306;BME280;56427;51.580;4.656;2023-02-15T09:03:58;102573.03;;;5.14;100.00
69306;BME280;56427;51.580;4.656;2023-02-15T09:06:25;102572.69;;;5.75;100.00
69306;BME280;56427;51.580;4.656;2023-02-15T09:08:50;102569.28;;;5.49;100.00
69306;BME280;56427;51.580;4.656;2023-02-15T09:11:17;102572.28;;;5.87;100.00
69306;BME280;56427;51.580;4.656;2023-02-15T09:13:48;102562.63;;;5.93;100.00
69306;BME280;56427;51.580;4.656;2023-02-15T09:16:14;102563.63;;;6.14;100.00
69306;BME280;56427;51.580;4.656;2023-02-15T09:18:42;102562.84;;;6.57;100.00
69306;BME280;56427;51.580;4.656;2023-02-15T09:21:10;102559.16;;;6.41;100.00
69306;BME280;56427;51.580;4.656;2023-02-15T09:23:39;102555.72;;;5.93;100.00
69306;BME280;56427;51.580;4.656;2023-02-15T09:26:07;102559.00;;;6.68;100.00
69306;BME280;56427;51.580;4.656;2023-02-15T09:28:34;102556.25;;;6.72;100.00
69306;BME280;56427;51.580;4.656;2023-02-15T09:31:19;102560.81;;;6.66;100.00
69306;BME280;56427;51.580;4.656;2023-02-15T09:33:46;102559.34;;;6.80;100.00
69306;BME280;56427;51.580;4.656;2023-02-15T09:36:24;102557.44;;;6.86;100.00
69306;BME280;56427;51.580;4.656;2023-02-15T09:39:09;102554.25;;;7.22;100.00
69306;BME280;56427;51.580;4.656;2023-02-15T09:52:46;102561.50;;;7.94;100.00
69306;BME280;56427;51.580;4.656;2023-02-15T09:58:16;102558.41;;;7.86;100.00
69306;BME280;56427;51.580;4.656;2023-02-15T10:00:58;102552.81;;;7.76;100.00
69306;BME280;56427;51.580;4.656;2023-02-15T10:03:55;102559.28;;;7.86;100.00
69306;BME280;56427;51.580;4.656;2023-02-15T10:07:05;102567.75;;;8.66;100.00
69306;BME280;56427;51.580;4.656;2023-02-15T10:12:52;102558.81;;;8.91;100.00
69306;BME280;56427;51.580;4.656;2023-02-15T10:20:57;102553.09;;;8.84;100.00
69306;BME280;56427;51.580;4.656;2023-02-15T10:26:25;102559.44;;;8.59;100.00
69306;BME280;56427;51.580;4.656;2023-02-15T10:28:57;102556.09;;;8.19;100.00
69306;BME280;56427;51.580;4.656;2023-02-15T10:31:27;102567.63;;;8.50;100.00
69306;BME280;56427;51.580;4.656;2023-02-15T10:50:44;102551.22;;;9.73;100.00
69306;BME280;56427;51.580;4.656;2023-02-15T11:06:14;102525.03;;;9.62;100.00
69306;BME280;56427;51.580;4.656;2023-02-15T11:08:53;102518.91;;;9.30;100.00
69306;BME280;56427;51.580;4.656;2023-02-15T11:11:24;102525.28;;;9.73;100.00
69306;BME280;56427;51.580;4.656;2023-02-15T11:13:56;102516.63;;;9.90;100.00
69306;BME280;56427;51.580;4.656;2023-02-15T11:16:26;102517.22;;;10.27;100.00
69306;BME280;56427;51.580;4.656;2023-02-15T11:18:58;102509.75;;;10.21;100.00
69306;BME280;56427;51.580;4.656;2023-02-15T11:21:33;102508.63;;;10.43;100.00
69306;BME280;56427;51.580;4.656;2023-02-15T11:24:13;102515.47;;;10.60;100.00
69306;BME280;56427;51.580;4.656;2023-02-15T11:26:53;102510.38;;;10.26;100.00
69306;BME280;56427;51.580;4.656;2023-02-15T11:29:35;102504.69;;;10.36;100.00
69306;BME280;56427;51.580;4.656;2023-02-15T11:37:27;102513.66;;;10.76;100.00
69306;BME280;56427;51.580;4.656;2023-02-15T11:39:53;102521.16;;;10.66;100.00
69306;BME280;56427;51.580;4.656;2023-02-15T11:42:21;102507.97;;;11.00;100.00
69306;BME280;56427;51.580;4.656;2023-02-15T11:45:14;102499.25;;;11.01;100.00
69306;BME280;56427;51.580;4.656;2023-02-15T11:47:42;102496.22;;;11.09;100.00
69306;BME280;56427;51.580;4.656;2023-02-15T11:50:15;102486.97;;;11.33;100.00
69306;BME280;56427;51.580;4.656;2023-02-15T11:52:42;102481.94;;;11.16;100.00
69306;BME280;56427;51.580;4.656;2023-02-15T11:55:19;102479.63;;;11.54;100.00
69306;BME280;56427;51.580;4.656;2023-02-15T11:58:00;102464.88;;;11.40;100.00
69306;BME280;56427;51.580;4.656;2023-02-15T12:00:42;102462.00;;;11.31;100.00
69306;BME280;56427;51.580;4.656;2023-02-15T12:03:22;102460.22;;;11.31;100.00
69306;BME280;56427;51.580;4.656;2023-02-15T12:05:57;102460.69;;;11.23;100.00
69306;BME280;56427;51.580;4.656;2023-02-15T12:08:24;102463.53;;;11.76;100.00
69306;BME280;56427;51.580;4.656;2023-02-15T12:10:57;102457.31;;;11.93;99.94
69306;BME280;56427;51.580;4.656;2023-02-15T12:13:25;102462.41;;;11.95;100.00
69306;BME280;56427;51.580;4.656;2023-02-15T12:15:53;102462.59;;;11.77;99.27
69306;BME280;56427;51.580;4.656;2023-02-15T12:18:35;102449.25;;;10.97;100.00
69306;BME280;56427;51.580;4.656;2023-02-15T12:21:07;102445.44;;;11.75;100.00
69306;BME280;56427;51.580;4.656;2023-02-15T12:23:34;102441.56;;;11.68;100.00
69306;BME280;56427;51.580;4.656;2023-02-15T12:26:05;102435.78;;;12.31;100.00
69306;BME280;56427;51.580;4.656;2023-02-15T12:31:02;102430.22;;;12.50;95.91
69306;BME280;56427;51.580;4.656;2023-02-15T12:33:34;102421.63;;;12.23;95.90
69306;BME280;56427;51.580;4.656;2023-02-15T12:36:24;102424.78;;;12.01;97.95
69306;BME280;56427;51.580;4.656;2023-02-15T12:39:16;102432.38;;;12.04;98.16
69306;BME280;56427;51.580;4.656;2023-02-15T12:41:57;102418.28;;;11.93;97.82
69306;BME280;56427;51.580;4.656;2023-02-15T12:44:35;102424.72;;;12.15;96.75
69306;BME280;56427;51.580;4.656;2023-02-15T12:49:37;102434.84;;;11.92;96.27
69306;BME280;56427;51.580;4.656;2023-02-15T12:54:43;102437.63;;;12.44;95.53
69306;BME280;56427;51.580;4.656;2023-02-15T12:59:49;102427.22;;;12.57;93.23
69306;BME280;56427;51.580;4.656;2023-02-15T13:05:14;102424.22;;;12.23;96.34
69306;BME280;56427;51.580;4.656;2023-02-15T13:07:50;102420.13;;;12.46;94.16
69306;BME280;56427;51.580;4.656;2023-02-15T13:12:49;102428.13;;;12.03;96.49
69306;BME280;56427;51.580;4.656;2023-02-15T13:15:28;102428.09;;;12.30;94.94
69306;BME280;56427;51.580;4.656;2023-02-15T13:17:57;102421.81;;;12.20;94.58
69306;BME280;56427;51.580;4.656;2023-02-15T13:20:23;102417.50;;;12.06;95.86
69306;BME280;56427;51.580;4.656;2023-02-15T13:22:50;102420.50;;;12.00;95.42
69306;BME280;56427;51.580;4.656;2023-02-15T13:25:28;102416.41;;;12.23;96.54
69306;BME280;56427;51.580;4.656;2023-02-15T13:28:01;102416.13;;;12.27;96.91
69306;BME280;56427;51.580;4.656;2023-02-15T13:30:30;102418.53;;;12.03;96.20
69306;BME280;56427;51.580;4.656;2023-02-15T13:33:03;102419.31;;;11.76;97.42
69306;BME280;56427;51.580;4.656;2023-02-15T13:35:49;102412.41;;;12.04;98.40
69306;BME280;56427;51.580;4.656;2023-02-15T13:41:02;102416.31;;;11.97;97.20
69306;BME280;56427;51.580;4.656;2023-02-15T13:43:53;102417.06;;;11.99;98.68
69306;BME280;56427;51.580;4.656;2023-02-15T13:49:44;102407.38;;;12.01;97.44
69306;BME280;56427;51.580;4.656;2023-02-15T14:00:44;102389.28;;;12.00;96.48
69306;BME280;56427;51.580;4.656;2023-02-15T14:04:21;102392.25;;;11.93;96.75
69306;BME280;56427;51.580;4.656;2023-02-15T14:06:26;102388.84;;;12.33;96.55
69306;BME280;56427;51.580;4.656;2023-02-15T14:20:07;102394.09;;;12.19;92.55
69306;BME280;56427;51.580;4.656;2023-02-15T14:22:42;102389.50;;;12.62;91.12
69306;BME280;56427;51.580;4.656;2023-02-15T14:25:27;102392.81;;;12.51;89.11
69306;BME280;56427;51.580;4.656;2023-02-15T14:30:38;102399.72;;;12.65;90.67
69306;BME280;56427;51.580;4.656;2023-02-15T14:35:39;102401.16;;;12.44;91.85
69306;BME280;56427;51.580;4.656;2023-02-15T14:38:21;102394.53;;;12.65;91.29
69306;BME280;56427;51.580;4.656;2023-02-15T14:40:59;102392.44;;;12.83;91.36
69306;BME280;56427;51.580;4.656;2023-02-15T14:43:34;102390.75;;;12.69;92.33
69306;BME280;56427;51.580;4.656;2023-02-15T14:46:31;102398.28;;;12.87;91.95
69306;BME280;56427;51.580;4.656;2023-02-15T14:49:31;102392.94;;;12.63;90.40
69306;BME280;56427;51.580;4.656;2023-02-15T14:52:11;102391.31;;;12.75;90.96
69306;BME280;56427;51.580;4.656;2023-02-15T14:59:54;102383.38;;;12.89;92.78
69306;BME280;56427;51.580;4.656;2023-02-15T15:02:29;102372.22;;;12.74;91.34
69306;BME280;56427;51.580;4.656;2023-02-15T15:05:21;102370.63;;;12.46;91.30
69306;BME280;56427;51.580;4.656;2023-02-15T15:07:57;102374.06;;;12.33;91.55
69306;BME280;56427;51.580;4.656;2023-02-15T15:12:56;102372.34;;;12.20;88.63
69306;BME280;56427;51.580;4.656;2023-02-15T15:20:48;102376.78;;;12.45;89.65
69306;BME280;56427;51.580;4.656;2023-02-15T15:25:49;102380.94;;;12.34;92.33
69306;BME280;56427;51.580;4.656;2023-02-15T15:31:04;102385.56;;;11.89;92.16
69306;BME280;56427;51.580;4.656;2023-02-15T15:39:42;102381.31;;;11.74;94.06
69306;BME280;56427;51.580;4.656;2023-02-15T15:45:44;102375.59;;;11.69;95.65